Time;durP1;ratioP1;P1;durP2;ratioP2;P2;SDS_P1;SDS_P2;PMS_P1;PMS_P2;Temp;Humidity;BMP_temperature;BMP_pressure;BME280_temperature;BME280_humidity;BME280_pressure;Samples;Min_cycle;Max_cycle;Signal;HPM_P1;HPM_P2
2022/03/19 00:00:53;;;;;;;17.33;10.53;;;5.60;1.00;;;;;;5071740;28;20717;-62
2022/03/19 00:03:20;;;;;;;15.50;11.17;;;5.60;19.60;;;;;;5071026;28;20201;-62
2022/03/19 00:05:49;;;;;;;15.77;10.30;;;5.50;99.90;;;;;;5071506;28;20668;-63
2022/03/19 00:08:17;;;;;;;18.83;11.00;;;5.50;14.60;;;;;;5071057;28;20676;-63
2022/03/19 00:10:43;;;;;;;16.93;10.13;;;5.50;27.00;;;;;;5071781;28;20295;-63
2022/03/19 00:13:10;;;;;;;16.77;10.20;;;5.50;1.00;;;;;;5071894;28;20593;-63
2022/03/19 00:15:39;;;;;;;12.53;9.60;;;5.60;99.90;;;;;;5071465;28;20669;-63
2022/03/19 00:18:05;;;;;;;25.90;10.50;;;5.60;99.90;;;;;;5071295;28;20202;-63
2022/03/19 00:20:32;;;;;;;17.73;10.80;;;5.50;99.90;;;;;;5071433;28;20213;-62
2022/03/19 00:22:59;;;;;;;18.40;11.67;;;5.50;99.90;;;;;;5071656;28;20630;-63
2022/03/19 00:25:26;;;;;;;20.67;11.33;;;5.40;99.90;;;;;;5071349;28;20232;-62
2022/03/19 00:27:53;;;;;;;17.60;10.70;;;5.30;41.10;;;;;;5071164;28;20266;-63
2022/03/19 00:30:19;;;;;;;21.37;10.70;;;5.30;1.00;;;;;;5071614;28;20217;-63
2022/03/19 00:32:47;;;;;;;18.73;11.43;;;5.20;99.90;;;;;;5071374;28;20205;-62
2022/03/19 00:35:15;;;;;;;16.07;10.13;;;5.20;99.90;;;;;;5071235;28;20279;-62
2022/03/19 00:37:46;;;;;;;20.37;11.33;;;5.20;1.00;;;;;;5071386;28;20274;-63
2022/03/19 00:40:13;;;;;;;19.67;11.23;;;5.20;1.00;;;;;;5071391;28;20627;-63
2022/03/19 00:42:41;;;;;;;18.00;10.50;;;5.20;1.00;;;;;;5071818;28;20648;-62
2022/03/19 00:45:09;;;;;;;17.63;10.07;;;5.20;99.90;;;;;;5071615;28;20487;-63
2022/03/19 00:47:35;;;;;;;23.83;11.77;;;5.10;99.90;;;;;;5071044;28;20263;-63
2022/03/19 00:50:04;;;;;;;15.57;10.47;;;5.20;99.90;;;;;;5071735;28;20528;-63
2022/03/19 00:52:30;;;;;;;20.87;10.67;;;5.10;99.90;;;;;;5071423;28;20474;-62
2022/03/19 00:54:57;;;;;;;20.70;11.03;;;5.10;1.00;;;;;;5071427;28;20463;-63
2022/03/19 00:57:24;;;;;;;17.30;10.40;;;5.10;45.80;;;;;;5071094;28;20452;-63
2022/03/19 00:59:50;;;;;;;15.53;10.33;;;5.10;38.70;;;;;;5071420;28;20451;-63
2022/03/19 01:02:17;;;;;;;16.47;9.93;;;5.10;99.90;;;;;;5071099;28;20443;-62
2022/03/19 01:04:44;;;;;;;15.43;10.27;;;5.10;99.90;;;;;;5071334;28;20225;-63
2022/03/19 01:07:12;;;;;;;19.57;11.50;;;5.00;1.00;;;;;;5071088;28;20205;-63
2022/03/19 01:09:38;;;;;;;18.83;10.43;;;5.10;99.90;;;;;;5070927;28;20933;-63
2022/03/19 01:12:06;;;;;;;16.37;10.27;;;5.10;99.90;;;;;;5071301;28;20255;-63
2022/03/19 01:14:33;;;;;;;15.23;10.33;;;5.10;99.90;;;;;;5070940;28;20263;-63
2022/03/19 01:16:59;;;;;;;15.77;11.63;;;5.10;99.90;;;;;;5070619;28;20443;-63
2022/03/19 01:22:06;;;;;;;15.80;9.30;;;5.10;99.90;;;;;;5073038;28;20470;-63
2022/03/19 01:24:34;;;;;;;15.63;10.57;;;5.10;99.90;;;;;;5074529;28;20229;-63
2022/03/19 01:27:01;;;;;;;16.80;9.60;;;5.10;99.90;;;;;;5073905;28;20224;-63
2022/03/19 01:29:28;;;;;;;14.23;9.43;;;5.10;1.00;;;;;;5074322;28;20210;-64
2022/03/19 01:31:54;;;;;;;20.43;10.77;;;5.10;99.90;;;;;;5074387;28;20443;-63
2022/03/19 01:34:21;;;;;;;16.87;11.00;;;5.20;99.90;;;;;;5074446;28;20813;-63
2022/03/19 01:36:47;;;;;;;17.13;9.83;;;5.20;99.90;;;;;;5073961;28;20447;-62
2022/03/19 01:39:14;;;;;;;13.67;9.47;;;5.20;99.90;;;;;;5074140;28;20235;-63
2022/03/19 01:41:44;;;;;;;16.80;9.97;;;5.20;99.90;;;;;;5074318;28;20447;-63
2022/03/19 01:44:18;;;;;;;15.33;10.03;;;5.20;1.00;;;;;;5074152;28;20474;-63
2022/03/19 01:46:55;;;;;;;17.80;9.97;;;5.10;1.00;;;;;;5073881;28;20578;-63
2022/03/19 01:49:22;;;;;;;16.73;10.17;;;5.10;99.90;;;;;;5073862;28;20728;-63
2022/03/19 01:51:48;;;;;;;15.47;10.17;;;5.10;99.90;;;;;;5074048;28;20455;-63
2022/03/19 01:54:15;;;;;;;22.00;10.53;;;5.00;1.00;;;;;;5073894;28;20828;-63
2022/03/19 01:56:45;;;;;;;16.33;11.17;;;5.00;1.00;;;;;;5073610;28;20522;-63
2022/03/19 01:59:13;;;;;;;20.27;10.47;;;5.00;99.90;;;;;;5073796;28;20942;-63
2022/03/19 02:01:41;;;;;;;16.57;10.47;;;4.90;1.00;;;;;;5073829;28;20501;-63
2022/03/19 02:04:09;;;;;;;17.80;10.03;;;4.90;1.00;;;;;;5073875;28;20316;-62
2022/03/19 02:06:36;;;;;;;16.43;10.73;;;4.90;1.00;;;;;;5073397;28;20564;-63
2022/03/19 02:09:03;;;;;;;17.37;11.17;;;4.90;1.00;;;;;;5073369;28;20470;-63
2022/03/19 02:11:30;;;;;;;17.57;10.87;;;4.90;99.90;;;;;;5073887;28;20473;-63
2022/03/19 02:13:58;;;;;;;17.53;10.90;;;4.80;1.00;;;;;;5073582;28;20447;-63
2022/03/19 02:16:25;;;;;;;20.20;12.10;;;4.80;99.90;;;;;;5073369;28;20439;-63
2022/03/19 02:18:52;;;;;;;19.23;11.07;;;4.70;99.90;;;;;;5073494;28;20455;-63
2022/03/19 02:21:19;;;;;;;18.10;11.37;;;4.70;1.00;;;;;;5073474;28;20451;-61
2022/03/19 02:26:45;;;;;;;19.77;10.80;;;4.70;70.90;;;;;;5072919;28;20609;-62
2022/03/19 02:29:12;;;;;;;21.23;12.63;;;4.60;99.90;;;;;;5073345;28;20462;-63
2022/03/19 02:31:41;;;;;;;20.47;11.77;;;4.70;99.90;;;;;;5073036;28;20905;-62
2022/03/19 02:34:09;;;;;;;18.03;11.00;;;4.60;99.90;;;;;;5073480;28;20463;-63
2022/03/19 02:36:36;;;;;;;19.83;11.80;;;4.60;99.90;;;;;;5072919;28;20567;-63
2022/03/19 02:39:10;;;;;;;22.23;12.10;;;4.60;99.90;;;;;;5073470;28;20863;-63
2022/03/19 02:41:41;;;;;;;18.07;11.63;;;4.60;99.90;;;;;;5073271;28;20454;-63
2022/03/19 02:44:09;;;;;;;19.87;11.53;;;4.50;99.90;;;;;;5073003;28;20501;-63
2022/03/19 02:46:40;;;;;;;20.60;12.13;;;4.40;99.90;;;;;;5072712;28;20483;-63
2022/03/19 02:49:07;;;;;;;23.17;12.33;;;4.50;99.90;;;;;;5073010;28;20459;-63
2022/03/19 02:51:35;;;;;;;17.23;12.43;;;4.40;99.90;;;;;;5073003;28;20636;-62
2022/03/19 02:54:04;;;;;;;21.00;12.03;;;4.40;99.90;;;;;;5072738;28;20520;-62
2022/03/19 02:56:33;;;;;;;20.07;11.40;;;4.40;99.90;;;;;;5072412;28;21158;-63
2022/03/19 02:59:06;;;;;;;19.20;10.63;;;4.40;1.00;;;;;;5072724;28;20447;-63
2022/03/19 03:01:33;;;;;;;16.50;11.53;;;4.40;1.00;;;;;;5072714;28;20451;-63
2022/03/19 03:04:00;;;;;;;17.83;11.50;;;4.40;1.00;;;;;;5072584;28;20454;-63
2022/03/19 03:06:27;;;;;;;18.03;12.33;;;4.40;1.00;;;;;;5072154;28;20528;-63
2022/03/19 03:08:54;;;;;;;19.17;11.30;;;4.30;1.00;;;;;;5072570;28;20456;-63
2022/03/19 03:11:21;;;;;;;18.13;12.23;;;4.40;1.00;;;;;;5072418;28;20447;-63
2022/03/19 03:13:49;;;;;;;19.00;13.07;;;4.40;1.00;;;;;;5072589;28;20446;-63
2022/03/19 03:16:15;;;;;;;20.57;13.90;;;4.30;1.00;;;;;;5072227;28;20451;-63
2022/03/19 03:18:42;;;;;;;21.23;12.13;;;4.30;1.00;;;;;;5072151;28;21006;-62
2022/03/19 03:21:09;;;;;;;18.90;12.23;;;4.30;1.00;;;;;;5072564;28;20517;-63
2022/03/19 03:23:35;;;;;;;19.40;11.83;;;4.30;1.00;;;;;;5072347;28;20444;-63
2022/03/19 03:26:02;;;;;;;19.57;11.73;;;4.30;1.00;;;;;;5071752;28;20483;-62
2022/03/19 03:28:29;;;;;;;19.97;12.37;;;4.30;1.00;;;;;;5072340;28;20451;-64
2022/03/19 03:30:57;;;;;;;23.00;13.00;;;4.30;1.00;;;;;;5072629;28;20451;-63
2022/03/19 03:33:24;;;;;;;18.20;12.13;;;4.20;1.00;;;;;;5073026;28;20509;-63
2022/03/19 03:35:51;;;;;;;19.30;12.87;;;4.20;1.00;;;;;;5071818;28;20517;-63
2022/03/19 03:38:18;;;;;;;18.23;12.30;;;4.20;1.00;;;;;;5072195;28;20451;-63
2022/03/19 03:40:45;;;;;;;17.93;11.93;;;4.20;1.00;;;;;;5071925;28;20459;-63
2022/03/19 03:43:12;;;;;;;24.37;13.43;;;4.20;1.00;;;;;;5071406;28;20459;-63
2022/03/19 03:45:38;;;;;;;18.53;11.13;;;4.10;1.00;;;;;;5071795;28;20459;-62
2022/03/19 03:48:06;;;;;;;22.93;12.60;;;4.10;1.00;;;;;;5071880;28;20458;-63
2022/03/19 03:50:35;;;;;;;18.90;12.97;;;4.10;1.00;;;;;;5071865;28;20497;-63
2022/03/19 03:53:03;;;;;;;21.77;12.17;;;4.10;1.00;;;;;;5071689;28;20504;-63
2022/03/19 03:55:30;;;;;;;18.90;12.83;;;4.10;1.00;;;;;;5071620;28;20969;-63
2022/03/19 03:57:57;;;;;;;22.30;13.87;;;4.10;1.00;;;;;;5071663;28;20881;-63
2022/03/19 04:00:23;;;;;;;19.30;12.80;;;4.00;1.00;;;;;;5071708;28;20458;-63
2022/03/19 04:02:50;;;;;;;17.73;12.43;;;4.00;1.00;;;;;;5071833;28;20454;-62
2022/03/19 04:05:19;;;;;;;19.53;13.33;;;4.00;1.00;;;;;;5071579;28;20467;-63
2022/03/19 04:07:45;;;;;;;21.33;12.77;;;4.00;1.00;;;;;;5071170;28;20548;-63
2022/03/19 04:10:12;;;;;;;24.00;13.97;;;4.10;1.00;;;;;;5071885;28;20859;-63
2022/03/19 04:12:39;;;;;;;20.77;13.53;;;4.00;1.00;;;;;;5071704;28;20447;-63
2022/03/19 04:15:08;;;;;;;20.50;13.43;;;4.00;1.00;;;;;;5071569;28;20468;-63
2022/03/19 04:17:35;;;;;;;17.97;11.93;;;3.90;1.00;;;;;;5071279;28;20443;-63
2022/03/19 04:20:03;;;;;;;19.53;12.57;;;4.00;1.00;;;;;;5071549;28;20966;-62
2022/03/19 04:22:35;;;;;;;19.73;13.37;;;4.00;1.00;;;;;;5071401;28;20542;-63
2022/03/19 04:25:02;;;;;;;21.57;12.63;;;4.00;1.00;;;;;;5071530;28;20467;-63
2022/03/19 04:27:29;;;;;;;19.67;12.50;;;4.00;1.00;;;;;;5071066;28;20479;-63
2022/03/19 04:29:56;;;;;;;18.27;12.37;;;4.00;1.00;;;;;;5071850;28;20431;-63
2022/03/19 04:32:22;;;;;;;19.07;13.57;;;4.00;1.00;;;;;;5071627;28;20455;-63
2022/03/19 04:34:49;;;;;;;23.70;13.30;;;4.00;1.00;;;;;;5071131;28;20525;-62
2022/03/19 04:37:16;;;;;;;21.03;12.03;;;4.00;1.00;;;;;;5071297;28;20975;-66
2022/03/19 04:39:44;;;;;;;21.20;13.47;;;4.00;1.00;;;;;;5071399;28;20447;-63
2022/03/19 04:42:10;;;;;;;18.73;11.63;;;3.90;1.00;;;;;;5071204;28;20941;-63
2022/03/19 04:44:37;;;;;;;20.93;12.37;;;3.90;1.00;;;;;;5071311;28;20992;-63
2022/03/19 04:47:04;;;;;;;19.13;12.27;;;3.90;1.00;;;;;;5070584;28;20487;-63
2022/03/19 04:49:31;;;;;;;20.00;12.70;;;3.90;1.00;;;;;;5071214;28;20860;-63
2022/03/19 04:51:58;;;;;;;21.07;12.37;;;3.90;1.00;;;;;;5071074;28;20447;-63
2022/03/19 04:54:24;;;;;;;23.93;12.87;;;3.80;1.40;;;;;;5071756;28;21050;-62
2022/03/19 04:56:52;;;;;;;23.17;15.93;;;3.80;3.60;;;;;;5074744;28;20439;-65
2022/03/19 04:59:19;;;;;;;22.13;13.23;;;3.80;8.90;;;;;;5074920;28;20447;-63
2022/03/19 05:01:46;;;;;;;17.53;12.00;;;3.80;18.20;;;;;;5074986;28;20960;-63
2022/03/19 05:04:13;;;;;;;16.90;10.90;;;3.80;19.30;;;;;;5075469;28;20474;-63
2022/03/19 05:06:39;;;;;;;22.03;11.97;;;3.70;29.80;;;;;;5075174;28;20478;-63
2022/03/19 05:11:51;;;;;;;16.47;11.80;;;3.70;32.20;;;;;;5074642;28;20928;-63
2022/03/19 05:14:18;;;;;;;20.13;12.77;;;3.70;38.90;;;;;;5074620;28;20521;-63
2022/03/19 05:16:45;;;;;;;17.27;11.27;;;3.80;45.20;;;;;;5074127;28;20508;-63
2022/03/19 05:19:12;;;;;;;18.57;9.03;;;3.80;47.20;;;;;;5074801;28;20504;-63
2022/03/19 05:21:38;;;;;;;21.10;11.73;;;3.80;51.80;;;;;;5074723;28;20450;-63
2022/03/19 05:24:06;;;;;;;20.30;12.63;;;3.80;44.60;;;;;;5074596;28;20480;-63
2022/03/19 05:26:35;;;;;;;16.30;10.80;;;3.90;39.30;;;;;;5074060;28;20901;-63
2022/03/19 05:29:03;;;;;;;16.63;11.97;;;3.80;37.80;;;;;;5073892;28;20447;-63
2022/03/19 05:31:30;;;;;;;17.03;9.90;;;3.80;39.70;;;;;;5074660;28;20442;-63
2022/03/19 05:36:41;;;;;;;17.20;10.57;;;3.90;37.40;;;;;;5074184;28;20494;-63
2022/03/19 05:39:07;;;;;;;19.07;11.30;;;4.00;29.70;;;;;;5074338;28;20447;-62
2022/03/19 05:41:34;;;;;;;17.33;11.23;;;4.00;31.50;;;;;;5073985;28;20455;-64
2022/03/19 05:44:02;;;;;;;19.37;10.87;;;4.00;20.30;;;;;;5074368;28;20459;-63
2022/03/19 05:46:29;;;;;;;19.03;11.80;;;4.00;24.00;;;;;;5073755;28;20479;-63
2022/03/19 05:48:55;;;;;;;18.20;11.20;;;4.00;23.20;;;;;;5074009;28;20455;-62
2022/03/19 05:51:22;;;;;;;18.37;11.00;;;3.90;22.40;;;;;;5073772;28;20451;-63
2022/03/19 05:53:49;;;;;;;22.80;11.67;;;3.90;25.50;;;;;;5073929;28;20447;-63
2022/03/19 05:56:16;;;;;;;16.67;11.30;;;3.90;31.40;;;;;;5073682;28;20532;-63
2022/03/19 05:58:43;;;;;;;21.13;12.23;;;3.90;33.60;;;;;;5073904;28;20545;-63
2022/03/19 06:01:11;;;;;;;17.63;10.57;;;3.80;37.60;;;;;;5074096;28;20453;-63
2022/03/19 06:03:37;;;;;;;19.30;11.37;;;3.80;39.70;;;;;;5073974;28;20516;-63
2022/03/19 06:06:04;;;;;;;18.27;11.83;;;3.80;44.50;;;;;;5072626;28;20999;-63
2022/03/19 06:08:31;;;;;;;19.43;11.63;;;3.80;55.10;;;;;;5073440;28;20439;-63
2022/03/19 06:10:58;;;;;;;17.60;11.63;;;3.80;55.20;;;;;;5073890;28;20451;-63
2022/03/19 06:13:26;;;;;;;15.20;10.33;;;3.90;56.00;;;;;;5073936;28;20516;-63
2022/03/19 06:15:53;;;;;;;15.13;10.93;;;3.90;58.80;;;;;;5073076;28;20478;-61
2022/03/19 06:18:21;;;;;;;16.27;11.67;;;3.90;62.20;;;;;;5073517;28;20941;-63
2022/03/19 06:20:48;;;;;;;14.40;10.97;;;3.90;67.30;;;;;;5073372;28;20447;-63
2022/03/19 06:23:14;;;;;;;18.50;11.77;;;4.00;60.70;;;;;;5073405;28;20498;-62
2022/03/19 06:25:41;;;;;;;18.13;11.93;;;4.00;60.00;;;;;;5073446;28;20548;-63
2022/03/19 06:28:07;;;;;;;19.60;10.97;;;4.00;61.20;;;;;;5073023;28;20487;-63
2022/03/19 06:30:37;;;;;;;15.03;8.93;;;4.10;57.80;;;;;;5073462;28;20505;-63
2022/03/19 06:33:04;;;;;;;13.83;9.77;;;4.20;50.60;;;;;;5073071;28;20912;-63
2022/03/19 06:38:17;;;;;;;14.73;9.50;;;4.30;23.00;;;;;;5072997;28;20796;-63
2022/03/19 06:40:44;;;;;;;16.80;10.53;;;4.40;7.00;;;;;;5073275;28;20451;-63
2022/03/19 06:43:11;;;;;;;11.37;8.23;;;4.50;1.00;;;;;;5073838;28;20581;-62
2022/03/19 06:45:38;;;;;;;14.33;7.50;;;4.50;1.00;;;;;;5073325;28;20987;-63
2022/03/19 06:48:05;;;;;;;12.70;8.03;;;4.60;1.00;;;;;;5072447;28;20588;-63
2022/03/19 06:50:33;;;;;;;14.80;8.63;;;4.70;1.00;;;;;;5072867;28;20447;-62
2022/03/19 06:53:00;;;;;;;17.17;8.87;;;4.80;1.00;;;;;;5073316;28;20443;-63
2022/03/19 06:55:27;;;;;;;16.90;10.30;;;4.80;1.00;;;;;;5073226;28;20467;-63
2022/03/19 06:57:54;;;;;;;9.13;7.00;;;4.80;1.00;;;;;;5073544;28;20443;-62
2022/03/19 07:00:21;;;;;;;14.47;9.50;;;4.90;1.00;;;;;;5073726;28;20526;-63
2022/03/19 07:02:48;;;;;;;16.37;9.93;;;4.90;1.00;;;;;;5072581;28;20451;-63
2022/03/19 07:05:19;;;;;;;16.50;8.63;;;4.90;1.00;;;;;;5072840;28;20554;-63
2022/03/19 07:07:47;;;;;;;15.20;8.00;;;5.00;99.90;;;;;;5072185;28;20486;-63
2022/03/19 07:10:15;;;;;;;15.77;9.33;;;5.10;99.90;;;;;;5072606;28;20857;-63
2022/03/19 07:12:43;;;;;;;16.60;9.13;;;5.10;99.90;;;;;;5072546;28;20451;-62
2022/03/19 07:15:12;;;;;;;16.33;9.50;;;5.20;99.90;;;;;;5072278;28;20548;-63
2022/03/19 07:17:39;;;;;;;19.13;10.30;;;5.20;99.90;;;;;;5071785;28;20526;-63
2022/03/19 07:20:07;;;;;;;14.30;10.00;;;5.20;99.90;;;;;;5072074;28;20466;-63
2022/03/19 07:22:48;;;;;;;15.90;8.87;;;5.30;12.20;;;;;;5072529;28;20451;-62
2022/03/19 07:25:15;;;;;;;18.03;10.33;;;5.30;1.00;;;;;;5072155;28;20474;-63
2022/03/19 07:27:41;;;;;;;16.40;9.00;;;5.50;1.00;;;;;;5071777;28;20483;-63
2022/03/19 07:30:09;;;;;;;14.27;8.43;;;5.50;99.90;;;;;;5072329;28;20556;-63
2022/03/19 07:32:37;;;;;;;17.27;10.37;;;5.50;1.00;;;;;;5072179;28;20630;-62
2022/03/19 07:35:04;;;;;;;15.00;8.47;;;5.70;99.90;;;;;;5072111;28;20231;-64
2022/03/19 07:37:31;;;;;;;12.30;8.90;;;5.70;1.00;;;;;;5071729;28;20216;-63
2022/03/19 07:39:59;;;;;;;14.47;8.83;;;5.80;1.00;;;;;;5072468;28;20205;-63
2022/03/19 07:42:25;;;;;;;16.87;8.37;;;5.80;99.90;;;;;;5072097;28;20209;-63
2022/03/19 07:44:52;;;;;;;11.40;8.40;;;5.90;1.00;;;;;;5072259;28;20279;-64
2022/03/19 07:47:19;;;;;;;15.97;9.37;;;6.00;1.00;;;;;;5071761;28;20267;-63
2022/03/19 07:49:46;;;;;;;15.97;8.97;;;6.00;99.90;;;;;;5071848;28;20213;-63
2022/03/19 07:52:12;;;;;;;12.23;8.17;;;6.20;19.20;;;;;;5072111;28;20265;-62
2022/03/19 07:54:39;;;;;;;21.23;9.73;;;6.30;1.00;;;;;;5071441;28;20227;-63
2022/03/19 07:57:10;;;;;;;14.10;7.63;;;6.30;1.00;;;;;;5071607;28;20206;-63
2022/03/19 07:59:37;;;;;;;11.70;7.20;;;6.40;1.00;;;;;;5072094;28;20207;-63
2022/03/19 08:02:05;;;;;;;17.53;9.40;;;6.40;1.00;;;;;;5071890;28;20580;-64
2022/03/19 08:04:31;;;;;;;15.23;8.83;;;6.50;1.00;;;;;;5071892;28;20341;-63
2022/03/19 08:06:58;;;;;;;18.87;9.33;;;6.70;99.90;;;;;;5071354;28;20204;-64
2022/03/19 08:09:25;;;;;;;16.93;7.93;;;6.70;1.00;;;;;;5071697;28;20215;-64
2022/03/19 08:11:52;;;;;;;15.03;8.17;;;6.70;99.90;;;;;;5071805;28;20210;-64
2022/03/19 08:14:21;;;;;;;12.30;7.70;;;6.80;99.90;;;;;;5071887;28;20227;-63
2022/03/19 08:16:47;;;;;;;12.40;8.67;;;6.90;99.90;;;;;;5071576;28;20204;-63
2022/03/19 08:19:15;;;;;;;8.73;4.83;;;7.00;1.00;;;;;;5071841;28;20290;-64
2022/03/19 08:21:43;;;;;;;13.23;8.40;;;7.10;1.00;;;;;;5071504;28;20256;-63
2022/03/19 08:24:10;;;;;;;9.90;6.40;;;7.10;1.00;;;;;;5071358;28;20232;-63
2022/03/19 08:26:38;;;;;;;11.73;7.77;;;7.20;1.00;;;;;;5071253;28;20708;-62
2022/03/19 08:29:04;;;;;;;16.40;8.27;;;7.10;99.90;;;;;;5071348;28;20232;-64
2022/03/19 08:31:33;;;;;;;12.87;7.67;;;7.20;99.90;;;;;;5075710;28;20299;-64
2022/03/19 08:33:59;;;;;;;10.53;5.03;;;7.30;99.90;;;;;;5075483;28;20258;-64
2022/03/19 08:36:26;;;;;;;9.93;6.47;;;7.40;1.00;;;;;;5074868;28;20213;-63
2022/03/19 08:41:37;;;;;;;9.33;5.03;;;7.40;1.00;;;;;;5075380;28;20231;-63
2022/03/19 08:44:05;;;;;;;11.27;6.47;;;7.50;99.90;;;;;;5075464;28;20205;-62
2022/03/19 08:46:33;;;;;;;13.73;6.10;;;7.60;99.90;;;;;;5074981;28;20205;-62
2022/03/19 08:49:00;;;;;;;11.07;6.37;;;7.60;99.90;;;;;;5075043;28;20229;-63
2022/03/19 08:51:41;;;;;;;15.80;6.67;;;7.70;1.80;;;;;;5075505;28;20213;-63
2022/03/19 08:54:10;;;;;;;9.73;5.33;;;7.70;1.00;;;;;;5067638;28;20225;-64
2022/03/19 08:56:37;;;;;;;15.50;7.30;;;7.70;1.00;;;;;;5055200;28;20201;-64
2022/03/19 08:59:04;;;;;;;13.33;5.47;;;7.80;1.00;;;;;;5054436;28;20202;-63
2022/03/19 09:01:33;;;;;;;9.43;5.90;;;7.90;99.90;;;;;;5054678;28;20209;-64
2022/03/19 09:04:00;;;;;;;16.23;6.77;;;7.90;99.90;;;;;;5054577;28;20579;-64
2022/03/19 09:06:26;;;;;;;14.33;7.87;;;8.10;99.90;;;;;;5054123;28;20209;-62
2022/03/19 09:08:53;;;;;;;9.43;6.40;;;8.30;99.90;;;;;;5054883;28;20226;-65
2022/03/19 09:11:21;;;;;;;13.47;5.93;;;8.20;99.90;;;;;;5055025;28;20202;-63
2022/03/19 09:13:48;;;;;;;13.43;6.83;;;8.30;99.90;;;;;;5054543;28;20240;-64
2022/03/19 09:16:16;;;;;;;16.97;6.40;;;8.20;99.90;;;;;;5053821;28;20879;-63
2022/03/19 09:18:44;;;;;;;8.47;4.97;;;8.30;99.90;;;;;;5054327;28;20198;-63
2022/03/19 09:21:11;;;;;;;11.93;6.37;;;8.40;99.90;;;;;;5054278;28;20210;-62
2022/03/19 09:23:38;;;;;;;10.40;5.73;;;8.50;51.00;;;;;;5054148;28;20300;-63
2022/03/19 09:26:05;;;;;;;10.13;5.20;;;8.70;21.70;;;;;;5053524;28;20299;-65
2022/03/19 09:28:32;;;;;;;6.63;4.90;;;8.90;1.00;;;;;;5053815;28;20221;-65
2022/03/19 09:30:59;;;;;;;6.77;4.63;;;9.10;1.00;;;;;;5054235;28;20207;-63
2022/03/19 09:33:25;;;;;;;12.63;4.77;;;9.10;1.00;;;;;;5053946;28;20212;-66
2022/03/19 09:35:53;;;;;;;12.87;5.37;;;9.00;1.00;;;;;;5054131;28;20276;-64
2022/03/19 09:38:20;;;;;;;10.60;5.30;;;8.90;1.00;;;;;;5053691;28;20206;-64
2022/03/19 09:40:47;;;;;;;6.33;3.10;;;9.00;1.00;;;;;;5053073;28;20208;-63
2022/03/19 09:43:14;;;;;;;9.97;4.10;;;9.00;99.90;;;;;;5053183;28;20213;-64
2022/03/19 09:45:40;;;;;;;10.53;5.97;;;9.10;99.90;;;;;;5053946;28;20230;-65
2022/03/19 09:48:07;;;;;;;6.43;3.73;;;9.10;99.90;;;;;;5053270;28;20689;-64
2022/03/19 09:50:35;;;;;;;5.87;3.67;;;9.30;99.90;;;;;;5054032;28;20202;-68
2022/03/19 09:53:05;;;;;;;7.77;3.90;;;9.40;99.90;;;;;;5053913;28;20305;-70
2022/03/19 09:55:34;;;;;;;8.17;4.30;;;9.30;99.90;;;;;;5053293;28;20225;-70
2022/03/19 09:58:02;;;;;;;7.77;3.83;;;9.40;99.90;;;;;;5052340;28;20257;-70
2022/03/19 10:00:29;;;;;;;6.43;4.33;;;9.60;99.90;;;;;;5053123;28;20202;-67
2022/03/19 10:02:56;;;;;;;5.97;3.17;;;9.40;99.90;;;;;;5053467;28;20729;-64
2022/03/19 10:10:50;;;;;;;7.63;3.20;;;9.70;99.90;;;;;;5053439;28;20213;-65
2022/03/19 10:13:17;;;;;;;7.90;3.57;;;9.90;99.90;;;;;;5053283;28;20268;-64
2022/03/19 10:15:44;;;;;;;5.43;2.50;;;10.00;99.90;;;;;;5053215;28;20235;-64
2022/03/19 10:18:12;;;;;;;5.80;3.27;;;10.10;99.90;;;;;;5052815;28;20214;-67
2022/03/19 10:20:39;;;;;;;3.57;2.43;;;10.00;99.90;;;;;;5053324;28;20215;-63
2022/03/19 10:23:07;;;;;;;5.57;3.67;;;9.80;99.90;;;;;;5052719;28;20622;-64
2022/03/19 10:25:33;;;;;;;5.43;2.60;;;9.80;99.90;;;;;;5052999;28;20227;-64
2022/03/19 10:28:01;;;;;;;9.40;2.80;;;9.80;99.90;;;;;;5052724;28;20225;-65
2022/03/19 10:30:36;;;;;;;3.97;2.70;;;9.60;99.90;;;;;;5052973;28;20215;-63
2022/03/19 10:33:02;;;;;;;11.17;3.13;;;9.70;99.90;;;;;;5052581;28;20255;-66
2022/03/19 10:35:30;;;;;;;4.53;2.10;;;9.60;99.90;;;;;;5052988;28;20295;-63
2022/03/19 10:37:59;;;;;;;5.80;2.27;;;9.60;99.90;;;;;;5052859;28;20210;-63
2022/03/19 10:40:39;;;;;;;4.23;1.50;;;9.90;99.90;;;;;;5052734;28;20214;-63
2022/03/19 10:43:07;;;;;;;2.57;1.33;;;10.00;99.90;;;;;;5052420;28;20210;-64
2022/03/19 10:45:34;;;;;;;5.60;1.87;;;9.90;99.90;;;;;;5052547;28;20263;-63
2022/03/19 10:48:02;;;;;;;3.13;2.00;;;9.90;99.90;;;;;;5051996;28;20695;-63
2022/03/19 10:50:29;;;;;;;3.77;1.83;;;10.10;99.90;;;;;;5052665;28;20778;-63
2022/03/19 10:52:56;;;;;;;1.63;1.03;;;10.30;99.90;;;;;;5052050;28;20208;-62
2022/03/19 10:55:24;;;;;;;4.87;2.03;;;10.20;99.90;;;;;;5052270;28;20224;-62
2022/03/19 10:57:53;;;;;;;3.27;1.73;;;10.40;99.90;;;;;;5052026;28;20297;-61
2022/03/19 11:00:20;;;;;;;2.80;1.43;;;10.60;99.90;;;;;;5052294;28;20295;-63
2022/03/19 11:02:48;;;;;;;3.50;1.60;;;10.60;99.90;;;;;;5052301;28;20217;-63
2022/03/19 11:05:18;;;;;;;2.33;1.23;;;10.40;99.90;;;;;;5053020;28;20233;-63
2022/03/19 11:07:46;;;;;;;2.83;1.67;;;10.50;99.90;;;;;;5053873;28;20208;-67
2022/03/19 11:10:13;;;;;;;4.03;1.20;;;10.60;99.90;;;;;;5053350;28;20212;-62
2022/03/19 11:12:44;;;;;;;3.97;1.23;;;10.70;99.90;;;;;;5052818;28;20213;-64
2022/03/19 11:15:14;;;;;;;3.50;1.23;;;10.60;99.90;;;;;;5052559;28;20314;-64
2022/03/19 11:17:41;;;;;;;2.67;1.30;;;10.80;99.90;;;;;;5052098;28;20211;-66
2022/03/19 11:20:10;;;;;;;2.07;1.00;;;10.80;99.90;;;;;;5052377;28;20251;-63
2022/03/19 11:22:40;;;;;;;2.87;1.10;;;10.80;99.90;;;;;;5052397;28;20208;-64
2022/03/19 11:25:12;;;;;;;3.63;1.47;;;10.70;99.90;;;;;;5053406;28;20229;-63
2022/03/19 11:27:41;;;;;;;1.57;0.97;;;10.60;99.90;;;;;;5053197;28;20213;-63
2022/03/19 11:30:21;;;;;;;2.40;1.17;;;10.70;99.90;;;;;;5052093;28;20286;-63
2022/03/19 11:33:04;;;;;;;2.20;1.30;;;11.00;99.90;;;;;;5051662;28;20215;-62
2022/03/19 11:35:31;;;;;;;1.60;1.20;;;10.70;99.90;;;;;;5051281;28;20232;-62
2022/03/19 11:38:01;;;;;;;5.80;1.57;;;10.80;99.90;;;;;;5051649;28;20205;-62
2022/03/19 11:40:32;;;;;;;2.90;1.40;;;10.80;99.90;;;;;;5051630;28;20211;-61
2022/03/19 11:43:01;;;;;;;2.73;1.37;;;10.80;99.90;;;;;;5051263;28;20618;-61
2022/03/19 11:45:51;;;;;;;3.53;1.20;;;10.60;99.90;;;;;;5051378;28;20285;-61
2022/03/19 11:48:39;;;;;;;3.80;1.40;;;10.50;99.90;;;;;;5051824;28;20597;-61
2022/03/19 11:51:28;;;;;;;2.30;1.53;;;10.70;99.90;;;;;;5037794;28;20598;-66
2022/03/19 11:53:56;;;;;;;2.17;1.37;;;11.00;99.90;;;;;;5051072;28;20263;-59
2022/03/19 11:56:24;;;;;;;2.97;1.50;;;11.10;99.90;;;;;;5050939;28;20683;-63
2022/03/19 11:58:51;;;;;;;2.60;1.30;;;11.00;99.90;;;;;;5051430;28;20260;-65
2022/03/19 12:01:39;;;;;;;3.10;1.50;;;11.10;99.90;;;;;;5051737;28;20216;-64
2022/03/19 12:04:13;;;;;;;4.97;2.17;;;10.90;99.90;;;;;;5050122;28;20237;-64
2022/03/19 12:06:51;;;;;;;9.50;4.67;;;11.00;99.90;;;;;;5050808;28;20664;-63
2022/03/19 12:09:18;;;;;;;2.10;1.40;;;11.00;99.90;;;;;;5051280;28;20699;-63
2022/03/19 12:12:23;;;;;;;3.33;1.20;;;11.00;99.90;;;;;;5051070;28;20848;-63
2022/03/19 12:14:52;;;;;;;2.33;1.30;;;11.10;99.90;;;;;;5051023;28;20741;-65
2022/03/19 12:17:23;;;;;;;3.37;1.40;;;11.10;99.90;;;;;;5050556;28;20220;-65
2022/03/19 12:19:55;;;;;;;2.80;1.10;;;11.20;99.90;;;;;;5051469;28;20220;-64
2022/03/19 12:22:30;;;;;;;4.13;1.67;;;11.20;99.90;;;;;;5050853;28;20260;-64
2022/03/19 12:25:08;;;;;;;3.93;1.50;;;11.20;99.90;;;;;;5050922;28;20352;-65
2022/03/19 12:27:35;;;;;;;4.67;1.30;;;11.30;99.90;;;;;;5050564;28;20340;-65
2022/03/19 12:30:01;;;;;;;2.60;1.53;;;11.50;99.90;;;;;;5051046;28;20283;-65
2022/03/19 12:32:29;;;;;;;2.53;1.60;;;11.50;99.90;;;;;;5050904;28;20776;-65
2022/03/19 12:35:01;;;;;;;2.97;1.37;;;11.30;99.90;;;;;;5050759;28;20251;-66
2022/03/19 12:37:28;;;;;;;3.17;1.57;;;11.30;99.90;;;;;;5050604;28;20209;-65
2022/03/19 12:39:59;;;;;;;3.17;1.50;;;11.50;99.90;;;;;;5050815;28;20220;-65
2022/03/19 12:42:30;;;;;;;3.77;1.47;;;11.50;99.90;;;;;;5051089;28;20216;-66
2022/03/19 12:44:59;;;;;;;3.30;1.40;;;11.30;99.90;;;;;;5050911;28;20283;-66
2022/03/19 12:47:26;;;;;;;2.90;1.40;;;11.30;99.90;;;;;;5050337;28;20205;-65
2022/03/19 12:49:55;;;;;;;2.87;1.07;;;11.30;99.90;;;;;;5050998;28;20229;-65
2022/03/19 12:52:22;;;;;;;3.03;1.27;;;11.20;99.90;;;;;;5050516;28;20209;-64
2022/03/19 12:54:51;;;;;;;3.23;1.63;;;11.30;99.90;;;;;;5050354;28;20814;-69
2022/03/19 12:57:23;;;;;;;4.17;1.23;;;11.50;99.90;;;;;;5050266;28;20684;-64
2022/03/19 12:59:52;;;;;;;2.47;1.17;;;11.60;99.90;;;;;;5050712;28;20202;-65
2022/03/19 13:02:19;;;;;;;2.20;1.40;;;11.50;99.90;;;;;;5050656;28;20229;-65
2022/03/19 13:04:47;;;;;;;6.33;2.03;;;11.50;99.90;;;;;;5049990;28;20761;-64
2022/03/19 13:07:17;;;;;;;2.57;1.20;;;11.40;99.90;;;;;;5050230;28;20241;-65
2022/03/19 13:09:44;;;;;;;4.13;1.33;;;11.50;99.90;;;;;;5050842;28;20225;-66
2022/03/19 13:12:21;;;;;;;7.87;1.30;;;11.50;99.90;;;;;;5050372;28;20705;-66